Time;durP1;ratioP1;P1;durP2;ratioP2;P2;SDS_P1;SDS_P2;PMS_P1;PMS_P2;Temp;Humidity;BMP_temperature;BMP_pressure;BME280_temperature;BME280_humidity;BME280_pressure;Samples;Min_cycle;Max_cycle;Signal;HPM_P1;HPM_P2
2024/01/09 00:01:18;;;;;;;8.88;3.92;;;;;;;-5.93;59.04;102401.53;10446698;28;20178;-78
2024/01/09 00:06:22;;;;;;;10.13;4.38;;;;;;;-5.90;58.96;102385.88;10455462;28;20118;-78
2024/01/09 00:11:25;;;;;;;9.65;4.68;;;;;;;-5.98;59.23;102382.22;10454642;28;20059;-79
2024/01/09 00:16:29;;;;;;;8.70;3.75;;;;;;;-6.03;59.71;102391.72;10455903;28;20048;-79
2024/01/09 00:21:32;;;;;;;9.07;3.95;;;;;;;-6.12;60.07;102380.22;10447474;28;21018;-78
2024/01/09 00:26:41;;;;;;;7.38;3.70;;;;;;;-6.16;60.52;102381.03;10451833;28;20049;-78
2024/01/09 00:31:45;;;;;;;9.93;4.07;;;;;;;-6.31;61.07;102393.78;10448787;28;20051;-78
2024/01/09 00:36:48;;;;;;;9.82;4.85;;;;;;;-6.26;61.15;102388.66;10438368;28;20517;-78
2024/01/09 00:41:51;;;;;;;9.45;4.57;;;;;;;-6.34;61.42;102396.34;10461476;28;20531;-78
2024/01/09 00:46:56;;;;;;;9.63;4.70;;;;;;;-6.38;62.13;102387.56;10480751;28;20063;-78
2024/01/09 00:51:59;;;;;;;12.43;4.85;;;;;;;-6.42;62.24;102384.84;10450641;28;20067;-77
2024/01/09 00:57:03;;;;;;;8.30;4.55;;;;;;;-6.40;62.51;102383.16;10448608;28;20048;-79
2024/01/09 01:02:07;;;;;;;9.13;4.97;;;;;;;-6.43;62.99;102367.41;10450155;28;20049;-78
2024/01/09 01:07:10;;;;;;;11.50;4.90;;;;;;;-6.42;63.07;102367.41;10449131;28;20040;-77
2024/01/09 01:12:13;;;;;;;11.18;4.93;;;;;;;-6.48;63.42;102369.03;10453117;28;20041;-76
2024/01/09 01:17:17;;;;;;;10.02;4.95;;;;;;;-6.48;63.65;102380.38;10449691;28;20048;-78
2024/01/09 01:22:21;;;;;;;11.85;5.18;;;;;;;-6.56;63.83;102380.19;10446606;28;20079;-78
2024/01/09 01:27:23;;;;;;;10.55;5.47;;;;;;;-6.60;64.09;102375.75;10447639;28;20087;-78
2024/01/09 01:32:28;;;;;;;7.57;4.70;;;;;;;-6.73;64.42;102371.09;10457161;28;20053;-78
2024/01/09 01:37:31;;;;;;;12.88;5.53;;;;;;;-6.75;64.66;102370.19;10448358;28;21160;-78
2024/01/09 01:42:34;;;;;;;14.45;6.22;;;;;;;-6.73;64.89;102378.06;10443858;28;20048;-78
2024/01/09 01:47:38;;;;;;;9.73;4.57;;;;;;;-6.83;65.27;102387.44;10450660;28;20041;-78
2024/01/09 01:52:43;;;;;;;13.88;6.32;;;;;;;-6.79;65.02;102369.25;10455101;28;20182;-78
2024/01/09 01:57:49;;;;;;;13.38;5.53;;;;;;;-6.76;65.24;102382.38;10451343;28;20225;-78
2024/01/09 02:02:54;;;;;;;16.58;5.97;;;;;;;-6.73;65.17;102380.69;10456409;28;20164;-78
2024/01/09 02:07:58;;;;;;;14.80;6.45;;;;;;;-6.76;65.28;102371.94;10463539;28;20048;-78
2024/01/09 02:13:01;;;;;;;12.70;6.20;;;;;;;-6.77;65.46;102371.91;10450230;28;20045;-78
2024/01/09 02:18:06;;;;;;;13.93;6.18;;;;;;;-6.81;65.63;102384.00;10460787;28;20054;-78
2024/01/09 02:23:09;;;;;;;11.60;5.47;;;;;;;-6.81;65.40;102389.22;10468162;28;20055;-78
2024/01/09 02:28:17;;;;;;;15.50;6.55;;;;;;;-6.85;65.43;102395.25;10459768;28;20068;-78
2024/01/09 02:33:22;;;;;;;14.18;5.38;;;;;;;-6.86;65.77;102388.25;10464093;28;20056;-78
2024/01/09 02:38:25;;;;;;;17.33;7.05;;;;;;;-6.88;65.91;102386.44;10461166;28;20044;-78
2024/01/09 02:43:28;;;;;;;13.57;6.60;;;;;;;-6.87;66.19;102391.72;10457839;28;20052;-78
2024/01/09 02:48:32;;;;;;;15.77;7.05;;;;;;;-6.80;65.74;102397.94;10474246;28;20048;-77
2024/01/09 02:53:35;;;;;;;18.90;7.32;;;;;;;-6.85;65.89;102390.03;10464002;28;20075;-77
2024/01/09 02:58:39;;;;;;;15.13;6.80;;;;;;;-6.89;65.87;102392.53;10471100;28;20052;-78
2024/01/09 03:03:43;;;;;;;17.65;6.93;;;;;;;-6.88;65.67;102389.97;10464896;28;20054;-78
2024/01/09 03:08:48;;;;;;;19.95;6.53;;;;;;;-6.91;66.16;102391.59;10455782;28;20040;-78
2024/01/09 03:13:51;;;;;;;16.80;7.07;;;;;;;-7.01;66.52;102388.78;10475356;28;20040;-78
2024/01/09 03:18:55;;;;;;;25.95;16.67;;;;;;;-7.06;66.61;102372.09;10462644;28;20435;-77
2024/01/09 03:23:58;;;;;;;16.60;6.88;;;;;;;-7.00;66.67;102376.59;10454977;28;20052;-78
2024/01/09 03:29:02;;;;;;;14.05;7.13;;;;;;;-7.03;66.86;102372.19;10441963;28;20044;-78
2024/01/09 03:34:07;;;;;;;12.88;5.85;;;;;;;-7.06;66.88;102373.84;10468377;28;20096;-78
2024/01/09 03:39:11;;;;;;;13.88;5.95;;;;;;;-7.12;67.01;102369.34;10471979;28;21280;-78
2024/01/09 03:44:14;;;;;;;14.63;7.75;;;;;;;-7.16;67.40;102364.91;10469687;28;20048;-78
2024/01/09 03:49:19;;;;;;;12.48;5.90;;;;;;;-7.10;66.94;102369.38;10456031;28;20060;-78
2024/01/09 03:54:21;;;;;;;17.75;7.03;;;;;;;-7.08;66.85;102367.69;10437144;28;20056;-78
2024/01/09 03:59:24;;;;;;;15.30;6.10;;;;;;;-7.08;66.66;102359.84;10458053;28;20055;-78
2024/01/09 04:04:29;;;;;;;15.50;6.35;;;;;;;-7.11;66.52;102359.78;10459433;28;20064;-78
2024/01/09 04:09:32;;;;;;;14.27;6.07;;;;;;;-7.14;66.09;102344.91;10461712;28;20527;-78
2024/01/09 04:14:35;;;;;;;15.40;6.32;;;;;;;-7.21;66.52;102353.47;10444308;28;20052;-78
2024/01/09 04:19:41;;;;;;;15.52;7.00;;;;;;;-7.22;66.19;102354.31;10463670;28;20055;-78
2024/01/09 04:24:44;;;;;;;14.95;5.63;;;;;;;-7.24;65.97;102353.38;10452864;28;20044;-78
2024/01/09 04:29:47;;;;;;;17.48;6.15;;;;;;;-7.26;65.60;102347.25;10467594;28;20040;-78
2024/01/09 04:34:52;;;;;;;15.70;6.35;;;;;;;-7.25;65.42;102347.28;10449201;28;20139;-77
2024/01/09 04:39:55;;;;;;;13.43;5.75;;;;;;;-7.22;65.08;102349.97;10457106;28;20045;-77
2024/01/09 04:44:58;;;;;;;13.70;6.03;;;;;;;-7.22;65.11;102346.47;10466942;28;20045;-78
2024/01/09 04:50:03;;;;;;;15.05;6.50;;;;;;;-7.24;65.03;102342.94;10455574;28;20040;-78
2024/01/09 04:55:07;;;;;;;15.35;6.70;;;;;;;-7.29;64.94;102335.00;10465752;28;20380;-78
2024/01/09 05:00:11;;;;;;;13.77;6.25;;;;;;;-7.32;65.08;102334.03;10473428;28;20037;-78
2024/01/09 05:05:16;;;;;;;15.88;6.07;;;;;;;-7.38;65.73;102337.38;10458976;28;20573;-78
2024/01/09 05:10:19;;;;;;;14.38;6.15;;;;;;;-7.39;65.92;102353.03;10486165;28;20117;-78
2024/01/09 05:15:22;;;;;;;17.35;7.13;;;;;;;-7.33;65.63;102355.78;10471832;28;20048;-78
2024/01/09 05:20:26;;;;;;;16.80;7.75;;;;;;;-7.38;66.24;102349.56;10457772;28;20592;-78
2024/01/09 05:25:29;;;;;;;18.95;7.47;;;;;;;-7.42;67.18;102346.00;10464563;28;20139;-78
2024/01/09 05:30:32;;;;;;;16.27;7.05;;;;;;;-7.49;67.08;102341.47;10448613;28;20657;-78
2024/01/09 05:35:37;;;;;;;17.65;7.68;;;;;;;-7.52;67.33;102347.50;10485776;28;21216;-78
2024/01/09 05:40:40;;;;;;;19.17;7.28;;;;;;;-7.51;67.23;102343.19;10449814;28;20041;-78
2024/01/09 05:45:43;;;;;;;19.02;7.57;;;;;;;-7.47;67.29;102351.09;10474576;28;20044;-78
2024/01/09 05:50:47;;;;;;;16.33;7.47;;;;;;;-7.45;67.21;102352.03;10467342;28;20048;-78
2024/01/09 05:55:50;;;;;;;22.23;7.78;;;;;;;-7.43;67.17;102362.53;10470575;28;20052;-78
2024/01/09 06:00:53;;;;;;;19.83;8.45;;;;;;;-7.49;67.07;102362.34;10472460;28;20044;-78
2024/01/09 06:05:57;;;;;;;22.80;8.73;;;;;;;-7.50;66.80;102353.63;10458233;28;20487;-78
2024/01/09 06:11:01;;;;;;;21.67;8.27;;;;;;;-7.53;66.60;102350.97;10441787;28;20051;-78
2024/01/09 06:16:05;;;;;;;21.17;8.85;;;;;;;-7.56;66.92;102350.88;10466153;28;20049;-78
2024/01/09 06:21:09;;;;;;;17.88;7.47;;;;;;;-7.64;67.57;102352.41;10465183;28;20052;-78
2024/01/09 06:26:13;;;;;;;21.00;8.60;;;;;;;-7.69;68.67;102367.06;10466241;28;21128;-78
2024/01/09 06:31:16;;;;;;;21.42;7.88;;;;;;;-7.74;69.29;102371.28;10467887;28;20048;-78
2024/01/09 06:36:21;;;;;;;18.73;8.27;;;;;;;-7.74;68.80;102369.56;10466542;28;20051;-78
2024/01/09 06:41:24;;;;;;;18.05;8.25;;;;;;;-7.77;69.00;102381.66;10463312;28;20055;-78
2024/01/09 06:46:27;;;;;;;18.77;8.10;;;;;;;-7.83;69.57;102378.88;10454660;28;20048;-78
2024/01/09 06:51:31;;;;;;;19.55;8.43;;;;;;;-7.86;69.38;102384.91;10463041;28;20232;-78
2024/01/09 06:56:35;;;;;;;19.60;8.70;;;;;;;-7.82;69.69;102388.47;10461576;28;20064;-78
2024/01/09 07:01:38;;;;;;;20.15;8.60;;;;;;;-7.92;69.62;102383.00;10464138;28;20044;-78
2024/01/09 07:06:42;;;;;;;18.58;8.73;;;;;;;-7.96;70.24;102391.59;10464843;28;20152;-78
2024/01/09 07:11:45;;;;;;;19.75;8.15;;;;;;;-7.91;70.24;102389.97;10477788;28;20055;-78
2024/01/09 07:16:48;;;;;;;22.55;8.70;;;;;;;-7.91;70.50;102394.31;10478789;28;20055;-78
2024/01/09 07:21:53;;;;;;;19.00;8.55;;;;;;;-7.94;70.52;102396.84;10471361;28;20051;-77
2024/01/09 07:26:56;;;;;;;19.38;7.65;;;;;;;-7.97;70.34;102397.66;10492946;28;20044;-77
2024/01/09 07:31:59;;;;;;;19.15;7.65;;;;;;;-7.98;70.27;102405.44;10463545;28;20048;-78
2024/01/09 07:37:03;;;;;;;11.20;4.68;;;;;;;-7.97;71.32;102415.91;10447092;28;20129;-78
2024/01/09 07:42:07;;;;;;;73.20;25.83;;;;;;;-7.16;71.91;102405.81;10455294;28;20040;-79
2024/01/09 07:47:11;;;;;;;40.92;17.27;;;;;;;-6.38;70.29;102412.84;10461090;28;20056;-77
2024/01/09 07:52:16;;;;;;;22.48;9.55;;;;;;;-5.86;66.61;102413.91;10462494;28;20048;-78
2024/01/09 07:57:19;;;;;;;20.00;8.02;;;;;;;-6.21;63.41;102419.31;10473755;28;20048;-79
2024/01/09 08:02:24;;;;;;;18.90;8.10;;;;;;;-6.65;63.39;102419.22;10453762;28;21457;-78
2024/01/09 08:07:30;;;;;;;21.10;8.55;;;;;;;-6.97;64.12;102421.09;10456717;28;20423;-77
2024/01/09 08:12:33;;;;;;;20.33;8.18;;;;;;;-7.11;64.97;102425.97;10456879;28;20055;-77
2024/01/09 08:17:36;;;;;;;21.23;8.77;;;;;;;-7.05;66.24;102431.38;10454301;28;20661;-78
2024/01/09 08:22:40;;;;;;;15.65;7.78;;;;;;;-6.38;65.82;102431.16;10456016;28;20076;-77
2024/01/09 08:27:43;;;;;;;17.38;8.07;;;;;;;-5.64;62.95;102438.75;10446210;28;20060;-77
2024/01/09 08:32:46;;;;;;;17.50;8.65;;;;;;;-4.98;59.92;102432.03;10453388;28;20150;-78
2024/01/09 08:37:51;;;;;;;16.85;7.82;;;;;;;-4.57;57.73;102427.41;10448720;28;20044;-79
2024/01/09 08:42:54;;;;;;;16.23;8.10;;;;;;;-4.33;56.27;102434.75;10441474;28;20700;-77
2024/01/09 08:47:57;;;;;;;20.52;10.40;;;;;;;-3.95;55.46;102436.97;10441857;28;20419;-76
2024/01/09 08:53:02;;;;;;;25.63;9.70;;;;;;;-3.74;54.64;102432.81;10444170;28;20040;-77
2024/01/09 08:58:05;;;;;;;24.73;8.57;;;;;;;-3.42;53.59;102428.78;10450024;28;20067;-77
2024/01/09 09:03:08;;;;;;;18.80;8.00;;;;;;;-2.92;51.96;102427.44;10453482;28;20052;-77
2024/01/09 09:08:12;;;;;;;15.05;7.30;;;;;;;-2.78;50.50;102430.16;10449961;28;20072;-77
2024/01/09 09:13:15;;;;;;;19.98;8.82;;;;;;;-2.30;49.50;102426.09;10440268;28;20047;-76
2024/01/09 09:18:18;;;;;;;17.50;7.57;;;;;;;-2.10;48.15;102428.81;10468508;28;20513;-77
2024/01/09 09:23:23;;;;;;;19.33;8.02;;;;;;;-1.89;47.01;102425.38;10449323;28;21276;-77
2024/01/09 09:28:26;;;;;;;15.52;8.07;;;;;;;-1.70;46.88;102410.47;10465477;28;20253;-77
2024/01/09 09:33:38;;;;;;;14.90;7.55;;;;;;;-1.38;46.06;102417.56;10456468;28;20105;-77
2024/01/09 09:38:43;;;;;;;18.05;8.52;;;;;;;-1.35;45.49;102418.44;10464136;28;20060;-78
2024/01/09 09:43:50;;;;;;;14.25;7.00;;;;;;;-1.11;44.76;102414.06;10450053;28;20241;-77
2024/01/09 09:48:54;;;;;;;18.85;7.50;;;;;;;-0.92;44.54;102402.63;10454777;28;20415;-77
2024/01/09 09:54:02;;;;;;;15.20;7.07;;;;;;;-1.13;43.76;102410.53;10479569;28;20048;-78
2024/01/09 09:59:05;;;;;;;11.98;7.25;;;;;;;-0.81;43.49;102398.19;10468765;28;20044;-78
2024/01/09 10:04:19;;;;;;;15.40;8.40;;;;;;;-0.84;42.10;102397.34;10455848;28;20056;-78
2024/01/09 10:09:29;;;;;;;14.40;6.82;;;;;;;-1.01;41.64;102387.69;10459282;28;20183;-78
2024/01/09 10:14:32;;;;;;;12.63;6.40;;;;;;;-0.69;41.48;102376.16;10458289;28;20040;-78
2024/01/09 10:19:35;;;;;;;12.23;6.78;;;;;;;-0.22;41.03;102374.25;10457050;28;20052;-78
2024/01/09 10:24:41;;;;;;;11.85;6.05;;;;;;;0.34;40.02;102358.09;10455335;28;20049;-78
2024/01/09 10:29:44;;;;;;;9.45;5.15;;;;;;;0.82;39.09;102352.41;10452910;28;20061;-78
2024/01/09 10:34:47;;;;;;;11.93;6.85;;;;;;;0.50;38.80;102348.28;10453560;28;21185;-79
2024/01/09 10:39:52;;;;;;;11.23;5.40;;;;;;;0.74;38.44;102338.34;10456255;28;20041;-78
2024/01/09 10:44:58;;;;;;;12.00;6.05;;;;;;;0.57;38.11;102331.44;10477883;28;20044;-77
2024/01/09 10:50:02;;;;;;;15.10;5.57;;;;;;;0.49;37.51;102322.69;10459285;28;20059;-80
2024/01/09 10:55:10;;;;;;;8.80;5.05;;;;;;;1.23;37.51;102317.56;10464002;28;20049;-78
2024/01/09 11:00:16;;;;;;;9.57;5.35;;;;;;;1.95;36.49;102300.75;10461291;28;20051;-78
2024/01/09 11:05:19;;;;;;;11.13;5.18;;;;;;;3.09;34.94;102303.31;10453637;28;20332;-78
2024/01/09 11:10:23;;;;;;;11.38;4.60;;;;;;;3.92;33.37;102294.44;10457608;28;20079;-78
2024/01/09 11:15:31;;;;;;;11.40;5.13;;;;;;;4.67;32.64;102286.44;10458989;28;20056;-78
2024/01/09 11:20:35;;;;;;;8.55;5.15;;;;;;;4.59;31.89;102276.84;10459760;28;20044;-78
2024/01/09 11:25:39;;;;;;;10.32;4.90;;;;;;;4.41;31.51;102277.31;10460597;28;20048;-79
2024/01/09 11:30:42;;;;;;;7.40;4.28;;;;;;;4.43;32.06;102278.16;10460057;28;20512;-79
2024/01/09 11:35:47;;;;;;;9.73;4.60;;;;;;;3.89;32.15;102274.13;10450546;28;20049;-79
2024/01/09 11:40:53;;;;;;;8.05;4.80;;;;;;;4.05;31.65;102268.47;10459994;28;20057;-78
2024/01/09 11:45:56;;;;;;;8.35;5.00;;;;;;;4.38;31.42;102256.09;10462315;28;20063;-77
2024/01/09 11:50:59;;;;;;;10.20;6.15;;;;;;;4.22;31.14;102254.75;10478458;28;20063;-79
2024/01/09 11:56:05;;;;;;;11.45;4.40;;;;;;;4.48;31.26;102251.44;10457193;28;20048;-79
2024/01/09 12:01:08;;;;;;;12.48;5.35;;;;;;;4.13;31.04;102245.22;10455633;28;20617;-79
2024/01/09 12:06:11;;;;;;;8.73;5.05;;;;;;;4.25;30.47;102241.34;10462278;28;20048;-79
2024/01/09 12:11:16;;;;;;;7.90;4.13;;;;;;;4.76;30.16;102239.13;10454696;28;20049;-79
2024/01/09 12:16:21;;;;;;;9.77;4.82;;;;;;;4.53;29.59;102245.09;10465498;28;20048;-79
2024/01/09 12:21:26;;;;;;;7.47;4.25;;;;;;;4.72;29.50;102242.81;10458370;28;20107;-78
2024/01/09 12:26:31;;;;;;;10.43;4.75;;;;;;;5.45;29.36;102230.97;10457338;28;20110;-78
2024/01/09 12:31:36;;;;;;;10.73;4.20;;;;;;;5.56;28.45;102228.84;10455780;28;20044;-79
2024/01/09 12:36:39;;;;;;;8.45;4.03;;;;;;;5.40;28.65;102227.56;10460204;28;20839;-79
2024/01/09 12:41:44;;;;;;;7.65;4.50;;;;;;;4.34;29.34;102244.69;10454365;28;20117;-79
2024/01/09 12:46:48;;;;;;;11.73;4.88;;;;;;;3.71;30.86;102224.91;10469936;28;20095;-78
2024/01/09 12:51:55;;;;;;;11.05;5.43;;;;;;;3.60;31.11;102213.66;10459120;28;20060;-79
2024/01/09 12:57:00;;;;;;;9.32;5.10;;;;;;;4.07;31.57;102214.31;10453161;28;20068;-79
2024/01/09 13:02:04;;;;;;;9.63;5.38;;;;;;;4.23;31.54;102220.13;10459772;28;20052;-79
2024/01/09 13:07:07;;;;;;;13.57;5.10;;;;;;;4.27;31.88;102219.13;10471910;28;21185;-79
2024/01/09 13:12:12;;;;;;;10.75;5.15;;;;;;;4.09;32.59;102220.47;10465676;28;20440;-79
2024/01/09 13:17:19;;;;;;;17.42;5.55;;;;;;;3.81;33.00;102219.38;10485960;28;20036;-79
2024/01/09 13:22:22;;;;;;;11.90;5.35;;;;;;;3.91;33.51;102213.81;10466569;28;20053;-79
2024/01/09 13:27:30;;;;;;;12.02;5.63;;;;;;;3.65;33.62;102206.47;10471129;28;20044;-79
2024/01/09 13:32:33;;;;;;;9.63;5.25;;;;;;;3.69;34.16;102210.78;10464482;28;20041;-80
2024/01/09 13:37:36;;;;;;;12.32;5.85;;;;;;;3.52;34.40;102209.44;10468569;28;20524;-79
2024/01/09 13:42:40;;;;;;;10.90;5.57;;;;;;;3.26;34.19;102197.59;10469185;28;20040;-79
2024/01/09 13:47:44;;;;;;;13.60;5.75;;;;;;;3.07;34.39;102210.38;10487938;28;20770;-79
2024/01/09 13:52:47;;;;;;;11.82;6.63;;;;;;;3.24;34.76;102205.59;10477066;28;20055;-80
2024/01/09 13:57:52;;;;;;;14.48;7.72;;;;;;;3.01;36.44;102203.41;10501263;28;20056;-80
2024/01/09 14:02:56;;;;;;;19.15;8.52;;;;;;;2.70;37.21;102207.59;10492408;28;20048;-79
2024/01/09 14:07:59;;;;;;;18.60;8.15;;;;;;;2.79;37.46;102202.09;10470178;28;20051;-79
2024/01/09 14:13:04;;;;;;;16.02;7.90;;;;;;;2.65;37.63;102209.47;10467131;28;20048;-80
2024/01/09 14:18:10;;;;;;;13.80;7.35;;;;;;;2.84;37.65;102214.38;10462930;28;20616;-80
2024/01/09 14:23:13;;;;;;;14.40;7.40;;;;;;;2.69;37.55;102216.44;10485245;28;20055;-80
2024/01/09 14:28:17;;;;;;;13.35;7.43;;;;;;;2.19;38.12;102216.41;10465987;28;20052;-80
2024/01/09 14:33:20;;;;;;;14.32;7.35;;;;;;;2.13;38.52;102205.91;10472652;28;20044;-81
2024/01/09 14:38:23;;;;;;;19.10;7.38;;;;;;;2.04;38.84;102208.72;10475110;28;20052;-81
2024/01/09 14:43:28;;;;;;;16.77;8.10;;;;;;;1.56;39.55;102209.44;10468580;28;20040;-80
2024/01/09 14:48:31;;;;;;;17.05;7.97;;;;;;;1.25;40.61;102206.34;10461014;28;20755;-79
2024/01/09 14:53:34;;;;;;;16.50;8.40;;;;;;;0.95;41.19;102203.19;10455690;28;20040;-80
2024/01/09 14:58:38;;;;;;;15.75;8.55;;;;;;;0.49;42.03;102208.09;10455288;28;20048;-79
2024/01/09 15:03:42;;;;;;;16.02;7.90;;;;;;;-0.29;43.36;102201.72;10479389;28;20545;-79
2024/01/09 15:08:46;;;;;;;19.65;8.30;;;;;;;-0.90;44.50;102215.28;10475478;28;20089;-78
2024/01/09 15:13:50;;;;;;;21.63;9.13;;;;;;;-1.67;45.96;102211.06;10472405;28;20055;-78
2024/01/09 15:18:54;;;;;;;18.95;9.10;;;;;;;-2.09;47.68;102209.31;10481362;28;20055;-79
2024/01/09 15:23:57;;;;;;;20.25;9.55;;;;;;;-2.36;48.67;102213.69;10458903;28;20044;-79
2024/01/09 15:29:01;;;;;;;18.02;8.55;;;;;;;-2.59;49.07;102221.53;10470480;28;20040;-78
2024/01/09 15:34:05;;;;;;;17.30;7.50;;;;;;;-2.80;49.94;102224.97;10463797;28;21251;-78
2024/01/09 15:39:08;;;;;;;22.52;7.88;;;;;;;-2.85;50.19;102221.44;10448637;28;20125;-77
2024/01/09 15:44:12;;;;;;;24.10;8.32;;;;;;;-3.10;50.32;102223.09;10458851;28;20044;-79
2024/01/09 15:49:15;;;;;;;17.65;8.82;;;;;;;-3.19;50.88;102223.91;10449169;28;20048;-76
2024/01/09 15:54:19;;;;;;;19.60;8.20;;;;;;;-3.31;51.25;102215.09;10459595;28;20054;-78
2024/01/09 15:59:24;;;;;;;25.55;8.60;;;;;;;-3.40;51.37;102229.06;10460410;28;20052;-77
2024/01/09 16:04:28;;;;;;;17.40;7.88;;;;;;;-3.43;51.79;102223.75;10461812;28;20054;-79
2024/01/09 16:09:31;;;;;;;31.00;9.15;;;;;;;-3.56;51.98;102238.59;10451807;28;20054;-77
2024/01/09 16:14:36;;;;;;;17.33;8.35;;;;;;;-3.58;51.78;102240.31;10466346;28;20070;-78
2024/01/09 16:19:40;;;;;;;18.33;7.15;;;;;;;-3.72;51.61;102239.34;10452220;28;20048;-78
2024/01/09 16:24:43;;;;;;;16.45;6.93;;;;;;;-3.81;51.22;102242.78;10446340;28;20051;-78
2024/01/09 16:29:47;;;;;;;16.35;7.38;;;;;;;-3.83;51.36;102239.25;10454838;28;21304;-78
2024/01/09 16:34:50;;;;;;;18.15;7.10;;;;;;;-3.88;51.21;102244.44;10455605;28;20524;-78
2024/01/09 16:39:56;;;;;;;17.77;6.93;;;;;;;-3.92;51.33;102242.69;10443945;28;20104;-78
2024/01/09 16:45:00;;;;;;;16.58;7.32;;;;;;;-3.96;51.11;102238.25;10455960;28;20056;-80
2024/01/09 16:50:04;;;;;;;17.48;7.03;;;;;;;-4.00;51.02;102246.06;10453412;28;20068;-79
2024/01/09 16:55:11;;;;;;;15.25;6.30;;;;;;;-4.08;51.17;102246.03;10456648;28;20101;-80
2024/01/09 17:00:16;;;;;;;17.20;7.82;;;;;;;-4.03;51.04;102251.31;10456393;28;20169;-78
2024/01/09 17:05:20;;;;;;;14.50;6.68;;;;;;;-4.11;50.92;102246.00;10477913;28;20104;-79
2024/01/09 17:10:23;;;;;;;16.90;7.13;;;;;;;-4.20;50.77;102251.16;10482421;28;20061;-80
2024/01/09 17:15:28;;;;;;;15.68;7.97;;;;;;;-4.16;50.68;102247.72;10462331;28;20053;-81
2024/01/09 17:20:31;;;;;;;17.20;6.57;;;;;;;-4.17;50.45;102245.94;10475530;28;20044;-80
2024/01/09 17:25:34;;;;;;;19.02;7.28;;;;;;;-4.21;50.83;102252.91;10482318;28;21147;-79
2024/01/09 17:30:38;;;;;;;15.52;7.00;;;;;;;-4.26;50.42;102244.09;10475324;28;20132;-80
2024/01/09 17:35:41;;;;;;;14.20;6.65;;;;;;;-4.21;50.68;102252.91;10455654;28;20056;-81
2024/01/09 17:40:44;;;;;;;16.20;7.32;;;;;;;-4.33;50.68;102247.53;10458634;28;20074;-79
2024/01/09 17:45:49;;;;;;;18.58;7.43;;;;;;;-4.37;50.39;102240.50;10470213;28;20156;-80
2024/01/09 17:50:52;;;;;;;17.45;7.75;;;;;;;-4.40;50.05;102243.97;10459640;28;20105;-79
2024/01/09 17:55:56;;;;;;;18.38;6.93;;;;;;;-4.47;49.93;102249.13;10464096;28;20045;-79
2024/01/09 18:01:03;;;;;;;18.17;8.15;;;;;;;-4.42;49.55;102244.81;10469338;28;20052;-81
2024/01/09 18:06:07;;;;;;;16.00;7.35;;;;;;;-4.59;49.38;102242.00;10464532;28;20048;-80
2024/01/09 18:11:20;;;;;;;16.02;7.10;;;;;;;-4.49;49.26;102238.63;10466471;28;20127;-80
2024/01/09 18:16:25;;;;;;;22.02;8.38;;;;;;;-4.45;49.54;102232.53;10452320;28;20136;-80
2024/01/09 18:21:28;;;;;;;22.80;8.25;;;;;;;-4.44;49.53;102233.41;10454453;28;20047;-78
2024/01/09 18:26:31;;;;;;;17.45;7.60;;;;;;;-4.44;50.23;102243.91;10476302;28;20132;-80
2024/01/09 18:31:42;;;;;;;16.17;7.28;;;;;;;-4.55;50.55;102239.44;10459616;28;20685;-79
2024/01/09 18:36:45;;;;;;;13.98;6.53;;;;;;;-4.56;49.61;102237.66;10451247;28;20055;-81
2024/01/09 18:41:55;;;;;;;19.75;7.65;;;;;;;-4.48;49.54;102236.88;10470349;28;20692;-80
2024/01/09 18:46:59;;;;;;;16.90;7.28;;;;;;;-4.59;50.42;102231.50;10466179;28;20496;-80
2024/01/09 18:52:03;;;;;;;15.63;6.65;;;;;;;-4.67;50.92;102220.91;10468472;28;20173;-81
2024/01/09 18:57:06;;;;;;;13.82;6.70;;;;;;;-4.79;51.67;102226.91;10474492;28;20048;-81
2024/01/09 19:02:11;;;;;;;14.60;7.20;;;;;;;-4.83;51.44;102217.22;10500310;28;20069;-79
2024/01/09 19:07:15;;;;;;;18.45;8.25;;;;;;;-4.82;51.40;102221.63;10495130;28;20047;-80
2024/01/09 19:12:19;;;;;;;15.90;8.00;;;;;;;-4.86;51.57;102211.09;10497633;28;20412;-80
2024/01/09 19:17:23;;;;;;;22.10;9.15;;;;;;;-4.86;51.69;102213.72;10506149;28;20048;-80
2024/01/09 19:22:26;;;;;;;18.73;9.18;;;;;;;-4.87;51.88;102218.06;10484410;28;20059;-79
2024/01/09 19:27:29;;;;;;;18.83;8.50;;;;;;;-4.84;51.92;102212.00;10495174;28;20055;-78
2024/01/09 19:32:33;;;;;;;22.02;11.45;;;;;;;-4.87;51.87;102204.09;10507578;28;20527;-79
2024/01/09 19:37:36;;;;;;;23.15;9.63;;;;;;;-4.88;52.13;102204.94;10507492;28;20055;-80
2024/01/09 19:42:40;;;;;;;17.33;8.55;;;;;;;-4.93;52.00;102214.50;10495746;28;20365;-80
2024/01/09 19:47:45;;;;;;;14.65;6.70;;;;;;;-5.21;53.16;102209.78;10517731;28;20529;-79
2024/01/09 19:52:51;;;;;;;16.33;7.60;;;;;;;-5.30;53.16;102204.41;10479466;28;20052;-78
2024/01/09 19:57:54;;;;;;;16.98;8.25;;;;;;;-5.28;53.50;102194.84;10502861;28;20463;-79
2024/01/09 20:02:58;;;;;;;18.38;8.00;;;;;;;-5.29;53.92;102189.56;10462182;28;20048;-78
2024/01/09 20:08:02;;;;;;;16.02;7.55;;;;;;;-5.36;54.41;102185.13;10455346;28;20048;-79
2024/01/09 20:13:05;;;;;;;16.83;8.00;;;;;;;-5.37;54.36;102188.63;10445845;28;20190;-78
2024/01/09 20:18:09;;;;;;;20.17;8.82;;;;;;;-5.40;54.46;102184.22;10458328;28;20070;-79
2024/01/09 20:23:14;;;;;;;17.27;8.60;;;;;;;-5.49;54.86;102184.94;10455436;28;20086;-80
2024/01/09 20:28:17;;;;;;;19.20;8.20;;;;;;;-5.54;55.19;102173.53;10456874;28;20826;-81
2024/01/09 20:33:22;;;;;;;21.70;9.13;;;;;;;-5.51;55.33;102177.91;10466701;28;20040;-79
2024/01/09 20:38:25;;;;;;;23.02;10.40;;;;;;;-5.50;55.48;102169.22;10485630;28;20063;-76
2024/01/09 20:43:28;;;;;;;20.38;10.48;;;;;;;-5.51;55.77;102172.69;10443815;28;20059;-80
2024/01/09 20:48:33;;;;;;;23.70;11.07;;;;;;;-5.48;56.34;102165.75;10462007;28;20577;-79
2024/01/09 20:53:37;;;;;;;22.92;9.60;;;;;;;-5.50;55.89;102162.22;10460080;28;20051;-80
2024/01/09 20:58:40;;;;;;;28.45;10.02;;;;;;;-5.60;55.63;102155.09;10458878;28;20542;-79
2024/01/09 21:03:45;;;;;;;24.90;10.05;;;;;;;-5.67;55.53;102156.75;10487154;28;20055;-78
2024/01/09 21:08:48;;;;;;;19.83;9.30;;;;;;;-5.73;55.56;102155.78;10469331;28;20082;-80
2024/01/09 21:13:51;;;;;;;21.60;10.60;;;;;;;-5.68;55.84;102156.72;10478643;28;20111;-80
2024/01/09 21:18:55;;;;;;;19.17;10.98;;;;;;;-5.61;55.64;102147.25;10469549;28;20044;-79
2024/01/09 21:23:59;;;;;;;26.50;11.70;;;;;;;-5.68;55.79;102152.38;10490737;28;20051;-79
2024/01/09 21:29:03;;;;;;;21.63;11.35;;;;;;;-5.64;56.04;102154.19;10493651;28;20040;-80
2024/01/09 21:34:07;;;;;;;31.23;13.52;;;;;;;-5.74;56.14;102159.25;10505639;28;21107;-79
2024/01/09 21:39:11;;;;;;;22.17;10.15;;;;;;;-5.84;56.04;102155.66;10496788;28;20588;-80
2024/01/09 21:44:14;;;;;;;28.67;11.13;;;;;;;-5.78;56.09;102150.50;10521052;28;20078;-79
2024/01/09 21:49:18;;;;;;;22.23;9.68;;;;;;;-5.79;56.10;102150.47;10495198;28;20048;-79
2024/01/09 21:54:21;;;;;;;21.10;8.68;;;;;;;-5.87;56.07;102146.00;10519485;28;20161;-79
2024/01/09 21:59:25;;;;;;;22.88;8.93;;;;;;;-5.79;56.25;102137.38;10511923;28;20059;-78
2024/01/09 22:04:30;;;;;;;20.25;9.23;;;;;;;-5.79;56.33;102140.00;10488927;28;20044;-80
2024/01/09 22:09:33;;;;;;;17.23;8.02;;;;;;;-5.81;56.83;102141.69;10497447;28;20040;-78
2024/01/09 22:14:36;;;;;;;21.40;9.55;;;;;;;-5.80;57.54;102138.25;10518162;28;20059;-79
2024/01/09 22:19:40;;;;;;;20.52;8.77;;;;;;;-5.83;57.60;102138.19;10497272;28;20457;-80
2024/01/09 22:24:43;;;;;;;22.27;9.27;;;;;;;-5.84;58.20;102136.41;10504986;28;20052;-79
2024/01/09 22:29:46;;;;;;;24.83;9.32;;;;;;;-5.92;58.44;102131.09;10504102;28;20494;-77
2024/01/09 22:34:51;;;;;;;20.95;9.30;;;;;;;-5.95;59.32;102133.63;10507602;28;20045;-80
2024/01/09 22:39:54;;;;;;;27.55;10.27;;;;;;;-5.95;59.49;102136.25;10519363;28;20577;-77
2024/01/09 22:44:57;;;;;;;25.85;9.60;;;;;;;-5.93;59.70;102138.03;10506633;28;20043;-77
2024/01/09 22:50:02;;;;;;;20.98;9.05;;;;;;;-6.02;59.91;102139.66;10528184;28;20107;-80
2024/01/09 22:55:06;;;;;;;22.58;8.98;;;;;;;-6.04;60.28;102134.38;10518821;28;20054;-79
2024/01/09 23:00:20;;;;;;;24.70;9.63;;;;;;;-6.02;60.46;102131.81;10490009;28;20051;-78
2024/01/09 23:05:26;;;;;;;17.70;9.05;;;;;;;-6.02;60.79;102139.66;10507639;28;20822;-78